Time;durP1;ratioP1;P1;durP2;ratioP2;P2;SDS_P1;SDS_P2;PMS_P1;PMS_P2;Temp;Humidity;BMP_temperature;BMP_pressure;BME280_temperature;BME280_humidity;BME280_pressure;Samples;Min_cycle;Max_cycle;Signal;HPM_P1;HPM_P2
2022/08/14 00:01:54;;;;;;;20.55;18.42;;;;;;;18.90;nan;94504.97;5031994;28;20199;-67
2022/08/14 00:04:20;;;;;;;28.52;19.88;;;;;;;19.05;nan;94496.09;5032067;28;20211;-67
2022/08/14 00:06:47;;;;;;;20.88;18.48;;;;;;;19.10;nan;94495.72;5031507;28;20220;-67
2022/08/14 00:09:14;;;;;;;22.80;19.23;;;;;;;19.13;nan;94492.94;5031675;28;20265;-68
2022/08/14 00:11:40;;;;;;;20.50;18.45;;;;;;;19.21;nan;94490.59;5031513;28;20236;-66
2022/08/14 00:14:09;;;;;;;21.42;18.40;;;;;;;19.24;nan;94486.03;5031631;28;20257;-66
2022/08/14 00:16:36;;;;;;;19.80;17.45;;;;;;;19.24;nan;94477.50;5031795;28;20195;-66
2022/08/14 00:19:03;;;;;;;19.73;17.67;;;;;;;19.33;nan;94476.75;5031098;28;20570;-66
2022/08/14 00:21:31;;;;;;;21.83;19.13;;;;;;;19.26;nan;94475.63;5031685;28;20223;-67
2022/08/14 00:23:57;;;;;;;22.67;20.50;;;;;;;19.31;nan;94469.16;5031636;28;20266;-69
2022/08/14 00:26:24;;;;;;;21.85;19.52;;;;;;;19.19;nan;94475.25;5031316;28;20251;-66
2022/08/14 00:28:52;;;;;;;23.63;21.23;;;;;;;18.96;nan;94479.59;5031540;28;20196;-66
2022/08/14 00:31:20;;;;;;;23.02;20.80;;;;;;;18.89;nan;94478.41;5030978;28;20191;-67
2022/08/14 00:33:46;;;;;;;20.23;18.35;;;;;;;19.10;nan;94490.59;5031618;28;20208;-67
2022/08/14 00:36:13;;;;;;;18.75;16.48;;;;;;;19.24;nan;94488.63;5031163;28;20199;-67
2022/08/14 00:38:40;;;;;;;17.10;15.57;;;;;;;19.34;nan;94486.94;5031154;28;20200;-68
2022/08/14 00:41:08;;;;;;;17.83;15.43;;;;;;;19.33;nan;94493.03;5031040;28;20253;-67
2022/08/14 00:43:36;;;;;;;14.88;13.65;;;;;;;19.37;nan;94491.88;5030795;28;20204;-67
2022/08/14 00:46:04;;;;;;;15.60;14.10;;;;;;;19.44;nan;94484.50;5031244;28;20203;-67
2022/08/14 00:48:33;;;;;;;15.52;14.13;;;;;;;19.20;nan;94481.22;5031156;28;20266;-67
2022/08/14 00:51:00;;;;;;;15.18;13.68;;;;;;;19.15;nan;94480.75;5030836;28;20678;-67
2022/08/14 00:53:27;;;;;;;15.07;13.70;;;;;;;19.21;nan;94475.16;5030990;28;20200;-67
2022/08/14 00:55:56;;;;;;;15.27;13.77;;;;;;;19.19;nan;94470.09;5031091;28;20195;-66
2022/08/14 00:58:33;;;;;;;15.07;13.68;;;;;;;19.25;nan;94473.97;5031319;28;20507;-67
2022/08/14 01:01:01;;;;;;;15.30;13.75;;;;;;;19.19;nan;94470.09;5030399;28;20653;-67
2022/08/14 01:03:29;;;;;;;14.63;13.43;;;;;;;19.26;nan;94462.75;5031061;28;20207;-67
2022/08/14 01:05:59;;;;;;;14.20;13.00;;;;;;;19.41;nan;94461.53;5030498;28;20582;-67
2022/08/14 01:08:27;;;;;;;13.82;12.73;;;;;;;19.62;nan;94452.16;5030826;28;20204;-67
2022/08/14 01:10:55;;;;;;;13.98;12.82;;;;;;;19.67;nan;94447.47;5030456;28;20835;-67
2022/08/14 01:13:25;;;;;;;14.23;12.85;;;;;;;19.49;nan;94445.50;5031085;28;20270;-67
2022/08/14 01:15:54;;;;;;;14.27;12.65;;;;;;;19.45;nan;94455.22;5030961;28;20203;-67
2022/08/14 01:21:13;;;;;;;12.95;11.75;;;;;;;19.41;nan;94446.09;5030348;28;20844;-67
2022/08/14 01:23:46;;;;;;;13.95;12.65;;;;;;;19.35;nan;94444.78;5030738;28;20239;-67
2022/08/14 01:26:14;;;;;;;12.82;11.75;;;;;;;19.43;nan;94440.81;5030655;28;20281;-67
2022/08/14 01:28:43;;;;;;;13.95;12.55;;;;;;;19.45;nan;94439.75;5030661;28;20206;-67
2022/08/14 01:31:14;;;;;;;13.63;12.13;;;;;;;19.50;nan;94442.81;5030693;28;20199;-68
2022/08/14 01:33:44;;;;;;;11.90;10.93;;;;;;;19.54;nan;94441.66;5031111;28;20203;-68
2022/08/14 01:36:11;;;;;;;16.73;13.48;;;;;;;19.64;nan;94450.28;5030755;28;20210;-67
2022/08/14 01:38:41;;;;;;;13.10;11.98;;;;;;;19.63;nan;94448.66;5030857;28;20626;-67
2022/08/14 01:41:12;;;;;;;13.35;12.25;;;;;;;19.67;nan;94444.91;5030668;28;20231;-67
2022/08/14 01:43:48;;;;;;;15.02;13.63;;;;;;;19.76;nan;94438.19;5030685;28;20204;-66
2022/08/14 01:46:16;;;;;;;14.20;12.95;;;;;;;19.77;nan;94454.50;5030468;28;20230;-66
2022/08/14 01:48:44;;;;;;;14.63;13.43;;;;;;;19.56;nan;94442.31;5030307;28;20204;-67
2022/08/14 01:51:13;;;;;;;14.80;13.35;;;;;;;19.44;nan;94448.41;5030426;28;20196;-67
2022/08/14 01:53:42;;;;;;;15.13;13.50;;;;;;;19.39;nan;94440.22;5031643;28;20237;-67
2022/08/14 01:56:11;;;;;;;13.63;12.40;;;;;;;19.44;nan;94437.28;5034586;28;20262;-67
2022/08/14 01:58:38;;;;;;;14.35;12.95;;;;;;;19.59;nan;94442.09;5034180;28;20204;-66
2022/08/14 02:01:05;;;;;;;13.50;12.00;;;;;;;19.47;nan;94437.88;5033956;28;20223;-66
2022/08/14 02:03:39;;;;;;;17.23;13.18;;;;;;;19.41;nan;94438.34;5034570;28;20199;-67
2022/08/14 02:06:07;;;;;;;14.63;13.13;;;;;;;19.47;nan;94442.22;5033642;28;20218;-66
2022/08/14 02:08:36;;;;;;;14.82;13.40;;;;;;;19.45;nan;94444.91;5034286;28;20200;-65
2022/08/14 02:11:17;;;;;;;14.20;12.80;;;;;;;19.34;nan;94438.00;5033842;28;20235;-67
2022/08/14 02:13:47;;;;;;;13.05;11.88;;;;;;;19.55;nan;94440.69;5034220;28;20214;-67
2022/08/14 02:16:15;;;;;;;13.73;12.48;;;;;;;19.67;nan;94439.75;5033567;28;20669;-67
2022/08/14 02:18:42;;;;;;;14.02;12.63;;;;;;;19.53;nan;94442.59;5033956;28;20745;-67
2022/08/14 02:21:11;;;;;;;14.18;12.85;;;;;;;19.37;nan;94436.94;5034072;28;20227;-67
2022/08/14 02:23:38;;;;;;;14.82;13.38;;;;;;;19.05;nan;94429.16;5034288;28;20235;-67
2022/08/14 02:26:15;;;;;;;15.30;12.63;;;;;;;19.24;nan;94428.53;5033866;28;20206;-67
2022/08/14 02:28:42;;;;;;;15.85;14.32;;;;;;;19.02;nan;94416.50;5033600;28;20672;-67
2022/08/14 02:31:11;;;;;;;18.90;14.98;;;;;;;19.29;nan;94429.84;5033313;28;20266;-67
2022/08/14 02:33:37;;;;;;;15.38;13.80;;;;;;;19.47;nan;94425.00;5033670;28;20594;-67
2022/08/14 02:36:05;;;;;;;16.00;13.65;;;;;;;19.47;nan;94430.16;5033600;28;20206;-66
2022/08/14 02:38:32;;;;;;;16.80;14.07;;;;;;;19.26;nan;94424.09;5033291;28;20204;-67
2022/08/14 02:40:59;;;;;;;18.67;14.73;;;;;;;19.38;nan;94416.22;5033413;28;20278;-67
2022/08/14 02:43:29;;;;;;;15.25;13.75;;;;;;;19.22;nan;94425.25;5033700;28;20204;-66
2022/08/14 02:45:55;;;;;;;18.02;14.25;;;;;;;19.15;nan;94422.34;5033489;28;20200;-67
2022/08/14 02:48:34;;;;;;;16.52;15.02;;;;;;;19.17;nan;94429.94;5033195;28;20685;-67
2022/08/14 02:51:06;;;;;;;15.35;13.90;;;;;;;19.20;nan;94430.53;5033038;28;20191;-67
2022/08/14 02:53:33;;;;;;;13.93;12.73;;;;;;;19.50;nan;94424.78;5033361;28;20584;-66
2022/08/14 02:56:01;;;;;;;15.05;13.63;;;;;;;19.54;nan;94427.94;5032858;28;20218;-66
2022/08/14 02:58:29;;;;;;;15.88;14.20;;;;;;;19.44;nan;94421.84;5033313;28;20291;-66
2022/08/14 03:00:55;;;;;;;14.45;13.20;;;;;;;19.53;nan;94432.28;5032171;28;20713;-66
2022/08/14 03:03:23;;;;;;;17.23;15.50;;;;;;;19.53;nan;94431.47;5032943;28;20191;-66
2022/08/14 03:05:51;;;;;;;17.40;15.85;;;;;;;19.47;nan;94424.19;5032334;28;20279;-67
2022/08/14 03:08:19;;;;;;;14.90;13.48;;;;;;;19.43;nan;94426.16;5032892;28;20196;-66
2022/08/14 03:10:46;;;;;;;16.48;14.75;;;;;;;19.47;nan;94426.75;5032188;28;20230;-66
2022/08/14 03:13:13;;;;;;;16.63;14.98;;;;;;;19.13;nan;94431.13;5032389;28;20199;-66
2022/08/14 03:15:40;;;;;;;19.73;14.55;;;;;;;19.43;nan;94436.47;5032674;28;20196;-66
2022/08/14 03:18:11;;;;;;;21.70;16.85;;;;;;;19.77;nan;94423.56;5032269;28;20824;-67
2022/08/14 03:20:39;;;;;;;18.17;15.20;;;;;;;19.69;nan;94419.81;5032284;28;20297;-66
2022/08/14 03:23:06;;;;;;;21.17;16.42;;;;;;;19.60;nan;94420.53;5032179;28;20557;-66
2022/08/14 03:25:32;;;;;;;18.55;15.48;;;;;;;19.51;nan;94423.84;5032358;28;20261;-66
2022/08/14 03:28:02;;;;;;;17.10;14.40;;;;;;;19.66;nan;94426.97;5032421;28;20208;-67
2022/08/14 03:30:30;;;;;;;14.77;13.38;;;;;;;19.63;nan;94433.19;5031892;28;20203;-66
2022/08/14 03:32:57;;;;;;;15.80;14.20;;;;;;;19.83;nan;94441.09;5032398;28;20204;-66
2022/08/14 03:35:24;;;;;;;16.88;14.70;;;;;;;19.91;nan;94441.31;5032024;28;20554;-66
2022/08/14 03:37:52;;;;;;;19.05;17.25;;;;;;;20.00;nan;94440.56;5032028;28;20673;-66
2022/08/14 03:40:19;;;;;;;20.23;18.15;;;;;;;19.96;nan;94444.34;5032096;28;20207;-66
2022/08/14 03:42:46;;;;;;;19.17;17.35;;;;;;;19.65;nan;94446.78;5032165;28;20208;-65
2022/08/14 03:45:14;;;;;;;19.15;17.30;;;;;;;19.80;nan;94446.47;5031786;28;20253;-66
2022/08/14 03:47:41;;;;;;;21.50;19.38;;;;;;;19.62;nan;94441.84;5031831;28;20579;-66
2022/08/14 03:50:09;;;;;;;20.80;18.60;;;;;;;19.47;nan;94450.75;5031905;28;20200;-66
2022/08/14 03:52:37;;;;;;;24.52;20.45;;;;;;;19.68;nan;94446.53;5032138;28;20199;-66
2022/08/14 03:55:07;;;;;;;22.98;20.52;;;;;;;19.50;nan;94441.97;5031836;28;20233;-66
2022/08/14 03:57:34;;;;;;;24.10;21.63;;;;;;;19.59;nan;94441.28;5031797;28;20751;-66
2022/08/14 04:00:05;;;;;;;26.80;21.35;;;;;;;19.40;nan;94435.88;5031541;28;20203;-66
2022/08/14 04:02:32;;;;;;;27.02;24.15;;;;;;;19.21;nan;94427.03;5031826;28;20314;-66
2022/08/14 04:04:59;;;;;;;29.98;24.75;;;;;;;18.95;nan;94431.59;5031196;28;20257;-66
2022/08/14 04:07:25;;;;;;;26.55;23.77;;;;;;;19.07;nan;94436.72;5031820;28;20204;-66
2022/08/14 04:09:52;;;;;;;29.40;23.55;;;;;;;19.00;nan;94449.28;5031100;28;20204;-66
2022/08/14 04:12:20;;;;;;;27.75;23.08;;;;;;;19.16;nan;94443.75;5031453;28;20231;-67
2022/08/14 04:14:47;;;;;;;26.58;23.27;;;;;;;19.11;nan;94451.00;5031273;28;20752;-66
2022/08/14 04:17:13;;;;;;;28.85;23.48;;;;;;;19.06;nan;94448.78;5030603;28;20203;-66
2022/08/14 04:19:40;;;;;;;26.70;22.85;;;;;;;18.80;nan;94443.06;5031571;28;20204;-66
2022/08/14 04:22:07;;;;;;;29.80;26.55;;;;;;;18.48;nan;94442.03;5031813;28;20223;-66
2022/08/14 04:24:34;;;;;;;33.05;25.85;;;;;;;18.28;nan;94438.38;5031570;28;20204;-65
2022/08/14 04:27:00;;;;;;;32.92;25.83;;;;;;;18.09;nan;94449.16;5031330;28;20751;-66
2022/08/14 04:29:28;;;;;;;28.15;24.13;;;;;;;17.97;nan;94443.19;5031006;28;20246;-66
2022/08/14 04:31:55;;;;;;;29.67;23.75;;;;;;;17.94;nan;94447.72;5031622;28;20253;-66
2022/08/14 04:34:22;;;;;;;27.67;24.75;;;;;;;17.90;nan;94441.16;5030975;28;20652;-66
2022/08/14 04:45:02;;;;;;;37.80;28.23;;;;;;;17.89;nan;94442.06;5031212;28;20584;-66
2022/08/14 04:50:14;;;;;;;46.67;35.97;;;;;;;18.03;nan;94441.91;5031036;28;20202;-66
2022/08/14 04:52:40;;;;;;;44.70;34.40;;;;;;;18.06;nan;94449.41;5031098;28;20262;-65
2022/08/14 04:55:09;;;;;;;40.88;31.25;;;;;;;18.16;nan;94446.97;5031077;28;20246;-66
2022/08/14 04:57:38;;;;;;;39.35;30.63;;;;;;;18.27;nan;94444.44;5031300;28;20209;-65
2022/08/14 05:00:09;;;;;;;38.13;30.00;;;;;;;18.62;nan;94434.13;5030806;28;20203;-66
2022/08/14 05:02:36;;;;;;;35.15;25.77;;;;;;;18.79;nan;94446.56;5030732;28;20223;-65
2022/08/14 05:05:02;;;;;;;27.02;23.85;;;;;;;19.12;nan;94435.44;5030771;28;20223;-65
2022/08/14 05:07:30;;;;;;;22.58;20.42;;;;;;;19.12;nan;94438.03;5030958;28;20674;-67
2022/08/14 05:09:57;;;;;;;22.25;19.75;;;;;;;19.18;nan;94436.75;5030705;28;20203;-66
2022/08/14 05:12:23;;;;;;;24.08;20.98;;;;;;;19.41;nan;94440.94;5030875;28;20227;-65
2022/08/14 05:14:50;;;;;;;19.42;16.90;;;;;;;19.63;nan;94442.66;5030965;28;20230;-65
2022/08/14 05:17:18;;;;;;;19.00;17.30;;;;;;;19.59;nan;94439.50;5030954;28;20638;-68
2022/08/14 05:19:45;;;;;;;18.95;16.15;;;;;;;19.81;nan;94441.22;5030875;28;20206;-65
2022/08/14 05:22:11;;;;;;;18.45;16.33;;;;;;;19.83;nan;94446.25;5030478;28;20223;-67
2022/08/14 05:24:39;;;;;;;17.90;16.17;;;;;;;19.80;nan;94447.31;5030861;28;20200;-65
2022/08/14 05:27:06;;;;;;;17.58;15.95;;;;;;;19.79;nan;94442.28;5031077;28;20228;-66
2022/08/14 05:29:32;;;;;;;17.40;15.70;;;;;;;19.81;nan;94445.53;5033432;28;20203;-65
2022/08/14 05:32:00;;;;;;;19.23;17.30;;;;;;;19.95;nan;94445.28;5035108;28;20195;-65
2022/08/14 05:34:29;;;;;;;16.98;15.23;;;;;;;19.88;nan;94441.53;5034273;28;20263;-65
2022/08/14 05:36:56;;;;;;;17.30;15.55;;;;;;;19.93;nan;94444.59;5035106;28;20257;-65
2022/08/14 05:39:22;;;;;;;15.60;14.07;;;;;;;19.95;nan;94438.38;5034860;28;20291;-66
2022/08/14 05:41:50;;;;;;;15.60;14.38;;;;;;;19.94;nan;94443.66;5034740;28;20235;-65
2022/08/14 05:44:17;;;;;;;16.27;13.65;;;;;;;20.23;nan;94447.28;5034703;28;20652;-65
2022/08/14 05:46:44;;;;;;;13.57;12.38;;;;;;;20.12;nan;94447.31;5034711;28;20257;-66
2022/08/14 05:49:10;;;;;;;14.93;13.57;;;;;;;20.19;nan;94447.66;5034199;28;20258;-65
2022/08/14 05:51:39;;;;;;;13.93;12.82;;;;;;;19.85;nan;94446.94;5034778;28;20246;-67
2022/08/14 05:54:06;;;;;;;15.25;13.73;;;;;;;19.76;nan;94447.69;5034476;28;20199;-67
2022/08/14 05:56:33;;;;;;;14.73;13.35;;;;;;;19.61;nan;94445.38;5034232;28;20258;-67
2022/08/14 05:59:00;;;;;;;14.43;13.13;;;;;;;19.89;nan;94444.00;5034284;28;20208;-67
2022/08/14 06:01:27;;;;;;;14.93;12.60;;;;;;;20.08;nan;94445.09;5033961;28;20709;-67
2022/08/14 06:03:54;;;;;;;13.38;12.27;;;;;;;20.19;nan;94434.75;5034077;28;20677;-67
2022/08/14 06:06:20;;;;;;;13.43;12.32;;;;;;;20.54;nan;94442.22;5034380;28;20779;-67
2022/08/14 06:08:48;;;;;;;13.02;11.88;;;;;;;20.80;nan;94450.38;5034853;28;20208;-67
2022/08/14 06:11:15;;;;;;;12.02;10.98;;;;;;;21.11;nan;94453.78;5034112;28;20289;-69
2022/08/14 06:13:43;;;;;;;12.63;11.65;;;;;;;21.24;nan;94454.44;5034926;28;20411;-67
2022/08/14 06:16:10;;;;;;;12.48;11.38;;;;;;;21.15;nan;94456.00;5034179;28;20204;-67
2022/08/14 06:18:37;;;;;;;11.95;11.00;;;;;;;20.87;nan;94457.50;5033953;28;20206;-67
2022/08/14 06:21:05;;;;;;;13.95;10.90;;;;;;;20.88;nan;94459.13;5034118;28;20285;-66
2022/08/14 06:23:32;;;;;;;12.98;11.90;;;;;;;21.03;nan;94460.41;5034147;28;20203;-67
2022/08/14 06:26:00;;;;;;;13.57;12.00;;;;;;;21.10;nan;94465.06;5033882;28;20200;-66
2022/08/14 06:28:27;;;;;;;12.13;11.13;;;;;;;21.05;nan;94460.28;5033643;28;20669;-66
2022/08/14 06:30:55;;;;;;;10.93;10.05;;;;;;;21.20;nan;94463.38;5033452;28;20689;-68
2022/08/14 06:33:22;;;;;;;12.75;9.75;;;;;;;21.25;nan;94466.41;5033567;28;20669;-68
2022/08/14 06:35:49;;;;;;;11.02;10.15;;;;;;;21.29;nan;94460.00;5033742;28;20732;-67
2022/08/14 06:38:18;;;;;;;11.68;10.60;;;;;;;21.29;nan;94460.00;5034069;28;20246;-67
2022/08/14 06:40:46;;;;;;;11.18;10.32;;;;;;;21.36;nan;94463.72;5031879;28;20203;-67
2022/08/14 06:43:15;;;;;;;10.40;9.70;;;;;;;21.15;nan;94470.69;5033669;28;20259;-67
2022/08/14 06:45:44;;;;;;;10.93;10.13;;;;;;;21.09;nan;94463.44;5033666;28;20274;-66
2022/08/14 06:48:15;;;;;;;9.40;8.75;;;;;;;21.04;nan;94464.63;5033510;28;20258;-64
2022/08/14 06:50:43;;;;;;;10.73;9.63;;;;;;;21.01;nan;94467.50;5033435;28;20199;-67
2022/08/14 06:53:10;;;;;;;8.50;7.85;;;;;;;20.94;nan;94468.13;5033309;28;20580;-65
2022/08/14 06:55:37;;;;;;;8.52;8.02;;;;;;;20.69;nan;94474.53;5033016;28;20985;-67
2022/08/14 06:58:04;;;;;;;7.95;7.35;;;;;;;20.62;nan;94468.22;5033514;28;20196;-64
2022/08/14 07:00:32;;;;;;;7.75;7.35;;;;;;;20.61;nan;94464.81;5032976;28;20204;-67
2022/08/14 07:05:47;;;;;;;6.80;6.47;;;;;;;20.94;nan;94466.38;5033125;28;20362;-66
2022/08/14 07:08:16;;;;;;;7.00;6.45;;;;;;;20.72;nan;94466.53;5033285;28;20196;-67
2022/08/14 07:10:44;;;;;;;6.53;6.13;;;;;;;20.75;nan;94462.88;5032454;28;20271;-67
2022/08/14 07:13:12;;;;;;;7.82;6.30;;;;;;;20.86;nan;94461.03;5033116;28;20196;-67
2022/08/14 07:15:44;;;;;;;8.10;7.53;;;;;;;21.09;nan;94460.84;5033075;28;20195;-67
2022/08/14 07:18:12;;;;;;;7.10;6.60;;;;;;;21.23;nan;94463.13;5032538;28;20239;-67
2022/08/14 07:20:40;;;;;;;7.10;6.70;;;;;;;21.15;nan;94474.09;5032822;28;20239;-66
2022/08/14 07:23:08;;;;;;;6.82;6.32;;;;;;;21.04;nan;94474.16;5032976;28;20228;-67
2022/08/14 07:25:35;;;;;;;6.68;6.07;;;;;;;21.12;nan;94466.59;5032742;28;20200;-67
2022/08/14 07:28:09;;;;;;;7.15;6.65;;;;;;;21.34;nan;94465.63;5032965;28;20195;-65
2022/08/14 07:30:36;;;;;;;6.85;6.22;;;;;;;21.30;nan;94462.47;5031953;28;20262;-65
2022/08/14 07:33:04;;;;;;;6.18;5.78;;;;;;;21.28;nan;94469.53;5032460;28;20195;-66
2022/08/14 07:35:31;;;;;;;6.85;6.47;;;;;;;21.38;nan;94464.41;5032378;28;20203;-65
2022/08/14 07:37:58;;;;;;;6.35;6.05;;;;;;;21.49;nan;94469.50;5032551;28;20677;-65
2022/08/14 07:40:25;;;;;;;6.80;6.20;;;;;;;21.65;nan;94474.16;5032128;28;20199;-67
2022/08/14 07:42:52;;;;;;;6.40;6.00;;;;;;;21.78;nan;94473.91;5032232;28;20718;-66
2022/08/14 07:45:19;;;;;;;6.38;5.55;;;;;;;21.78;nan;94476.50;5032534;28;20641;-65
2022/08/14 07:47:46;;;;;;;5.65;5.25;;;;;;;21.90;nan;94478.00;5032398;28;20196;-66
2022/08/14 07:50:19;;;;;;;5.47;5.10;;;;;;;22.06;nan;94478.31;5032342;28;20196;-65
2022/08/14 07:52:48;;;;;;;5.80;5.50;;;;;;;22.16;nan;94479.16;5031898;28;20200;-66
2022/08/14 07:55:15;;;;;;;5.53;5.03;;;;;;;22.02;nan;94476.97;5032075;28;20204;-66
2022/08/14 07:57:44;;;;;;;5.55;5.25;;;;;;;22.05;nan;94479.28;5032277;28;20203;-65
2022/08/14 08:00:13;;;;;;;6.05;5.55;;;;;;;21.97;nan;94485.13;5032123;28;20350;-66
2022/08/14 08:02:43;;;;;;;5.70;5.30;;;;;;;21.88;nan;94480.72;5032226;28;20254;-67
2022/08/14 08:05:11;;;;;;;5.30;4.90;;;;;;;21.70;nan;94472.81;5031960;28;20224;-67
2022/08/14 08:07:41;;;;;;;5.57;5.28;;;;;;;21.74;nan;94478.53;5032135;28;20274;-65
2022/08/14 08:12:52;;;;;;;5.95;5.57;;;;;;;21.66;nan;94476.59;4991853;28;20655;-67
2022/08/14 08:15:19;;;;;;;5.00;4.80;;;;;;;21.53;nan;94481.19;4992339;28;20229;-67
2022/08/14 08:17:46;;;;;;;5.85;5.55;;;;;;;21.47;nan;94473.97;4992314;28;20639;-66
2022/08/14 08:20:16;;;;;;;6.50;6.13;;;;;;;21.61;nan;94470.19;4992486;28;20639;-66
2022/08/14 08:22:44;;;;;;;6.22;5.70;;;;;;;21.72;nan;94470.91;4992486;28;20299;-66
2022/08/14 08:25:11;;;;;;;6.10;5.80;;;;;;;21.87;nan;94475.69;4992060;28;20248;-66
2022/08/14 08:27:38;;;;;;;6.35;5.95;;;;;;;22.01;nan;94470.19;4992326;28;20201;-66
2022/08/14 08:30:08;;;;;;;6.22;5.93;;;;;;;22.03;nan;94463.88;4992112;28;20211;-65
2022/08/14 08:32:39;;;;;;;6.05;5.68;;;;;;;22.06;nan;94470.56;4992451;28;20201;-66
2022/08/14 08:35:10;;;;;;;6.68;6.28;;;;;;;22.03;nan;94465.66;4992387;28;20260;-67
2022/08/14 08:37:37;;;;;;;7.00;6.30;;;;;;;21.99;nan;94466.88;4992596;28;20209;-66
2022/08/14 08:40:06;;;;;;;6.22;5.90;;;;;;;22.07;nan;94469.59;4992156;28;20271;-66
2022/08/14 08:42:33;;;;;;;5.70;5.40;;;;;;;22.11;nan;94465.81;4992191;28;20225;-65
2022/08/14 08:45:00;;;;;;;6.22;5.82;;;;;;;21.97;nan;94463.59;4992184;28;20256;-65
2022/08/14 08:47:38;;;;;;;5.55;5.20;;;;;;;22.00;nan;94463.31;4992112;28;20636;-67
2022/08/14 08:50:17;;;;;;;5.45;5.05;;;;;;;21.91;nan;94458.94;4991693;28;20201;-65
2022/08/14 08:52:48;;;;;;;6.15;5.63;;;;;;;22.08;nan;94466.06;4992217;28;20233;-66
2022/08/14 08:55:16;;;;;;;5.60;5.30;;;;;;;21.89;nan;94460.84;4991503;28;20267;-66
2022/08/14 08:57:43;;;;;;;5.75;5.45;;;;;;;22.01;nan;94465.81;4991748;28;20201;-65
2022/08/14 09:00:17;;;;;;;5.30;5.00;;;;;;;22.07;nan;94464.44;4991567;28;20201;-66
2022/08/14 09:02:56;;;;;;;4.93;4.63;;;;;;;22.16;nan;94462.81;4990960;28;20790;-65
2022/08/14 09:05:23;;;;;;;6.03;5.68;;;;;;;22.36;nan;94454.91;4991385;28;20279;-67
2022/08/14 09:07:50;;;;;;;5.50;5.20;;;;;;;22.63;nan;94440.44;4991540;28;20587;-66
2022/08/14 09:10:18;;;;;;;4.68;4.47;;;;;;;22.88;nan;94442.44;4992474;28;20193;-67
2022/08/14 09:12:46;;;;;;;5.03;4.82;;;;;;;23.12;nan;94447.16;5031195;28;20188;-67
2022/08/14 09:15:13;;;;;;;4.95;4.75;;;;;;;23.13;nan;94455.75;5030815;28;20253;-67
2022/08/14 09:17:40;;;;;;;5.00;4.80;;;;;;;23.24;nan;94442.63;5030928;28;20586;-67
2022/08/14 09:20:07;;;;;;;4.63;4.40;;;;;;;23.15;nan;94446.06;5030545;28;20630;-67
2022/08/14 09:22:35;;;;;;;5.40;4.82;;;;;;;22.95;nan;94446.13;5030498;28;20225;-67
2022/08/14 09:25:02;;;;;;;4.07;3.88;;;;;;;22.96;nan;94441.75;5030623;28;20203;-67
2022/08/14 09:27:31;;;;;;;4.63;4.43;;;;;;;22.89;nan;94441.50;5030800;28;20196;-66
2022/08/14 09:29:58;;;;;;;4.60;4.30;;;;;;;22.76;nan;94440.16;5030418;28;20747;-68
2022/08/14 09:32:38;;;;;;;4.15;3.95;;;;;;;22.70;nan;94434.56;5030942;28;20229;-67
2022/08/14 09:35:17;;;;;;;4.05;3.75;;;;;;;22.75;nan;94428.97;5030469;28;20253;-67
2022/08/14 09:37:59;;;;;;;4.28;4.07;;;;;;;22.64;nan;94439.47;5030449;28;20204;-68
2022/08/14 09:40:42;;;;;;;4.78;4.43;;;;;;;22.90;nan;94448.31;5030820;28;20242;-67
2022/08/14 09:43:29;;;;;;;6.53;6.15;;;;;;;23.06;nan;94447.72;5030799;28;20231;-67
2022/08/14 09:45:57;;;;;;;4.40;4.20;;;;;;;22.99;nan;94447.47;5030637;28;20203;-67
2022/08/14 09:48:27;;;;;;;3.88;3.67;;;;;;;22.75;nan;94436.75;5030623;28;20206;-68
2022/08/14 09:50:55;;;;;;;3.47;3.28;;;;;;;23.11;nan;94442.91;5030678;28;20661;-67
2022/08/14 09:53:41;;;;;;;2.75;2.65;;;;;;;23.62;nan;94445.03;5030399;28;20743;-67
2022/08/14 09:56:08;;;;;;;2.97;2.88;;;;;;;23.90;nan;94447.59;5030105;28;20697;-66
2022/08/14 09:58:42;;;;;;;3.47;3.38;;;;;;;23.86;nan;94443.66;5030481;28;20207;-66
2022/08/14 10:01:12;;;;;;;3.22;3.13;;;;;;;23.46;nan;94442.22;5030457;28;20270;-66
2022/08/14 10:03:49;;;;;;;3.05;2.95;;;;;;;23.28;nan;94436.97;5030632;28;20227;-66
2022/08/14 10:06:19;;;;;;;2.38;2.28;;;;;;;23.44;nan;94436.38;5030198;28;20227;-68
2022/08/14 10:08:49;;;;;;;2.95;2.75;;;;;;;23.92;nan;94435.28;5030914;28;20227;-68
2022/08/14 10:11:21;;;;;;;3.03;2.92;;;;;;;23.96;nan;94434.03;5030373;28;20752;-67
2022/08/14 10:13:53;;;;;;;3.28;3.08;;;;;;;24.08;nan;94445.81;5032017;28;20196;-66
2022/08/14 10:16:23;;;;;;;3.05;2.95;;;;;;;24.19;nan;94432.63;5034336;28;20200;-67
2022/08/14 10:19:00;;;;;;;2.90;2.80;;;;;;;24.17;nan;94434.56;5037191;28;20192;-67
2022/08/14 10:21:27;;;;;;;3.20;3.00;;;;;;;24.36;nan;94434.44;5035133;28;20199;-68
2022/08/14 10:23:54;;;;;;;2.83;2.72;;;;;;;24.44;nan;94427.66;5035296;28;20231;-66
2022/08/14 10:26:22;;;;;;;3.28;3.08;;;;;;;24.30;nan;94431.59;5035003;28;20204;-68
2022/08/14 10:28:52;;;;;;;3.30;3.20;;;;;;;24.31;nan;94426.25;5034525;28;20283;-67
2022/08/14 10:31:20;;;;;;;2.80;2.70;;;;;;;24.32;nan;94421.88;5033800;28;20673;-67
2022/08/14 10:34:02;;;;;;;3.25;3.05;;;;;;;24.05;nan;94425.34;5034044;28;20206;-66
2022/08/14 10:36:31;;;;;;;3.08;2.88;;;;;;;23.82;nan;94427.56;5033787;28;20200;-67
2022/08/14 10:38:58;;;;;;;3.83;2.83;;;;;;;23.51;nan;94419.25;5033843;28;20644;-67
2022/08/14 10:41:39;;;;;;;3.03;2.85;;;;;;;23.43;nan;94419.19;5033730;28;20211;-67
2022/08/14 10:44:13;;;;;;;2.63;2.53;;;;;;;23.62;nan;94411.31;5033152;28;20311;-67
2022/08/14 10:46:45;;;;;;;2.53;2.42;;;;;;;23.81;nan;94399.16;5033601;28;20635;-67
2022/08/14 10:49:23;;;;;;;2.92;2.83;;;;;;;23.64;nan;94399.00;5033583;28;20203;-66
2022/08/14 10:52:05;;;;;;;2.80;2.70;;;;;;;23.57;nan;94390.19;5033037;28;20206;-67
2022/08/14 10:54:40;;;;;;;3.15;3.05;;;;;;;23.64;nan;94387.81;5033624;28;20250;-67
2022/08/14 10:57:20;;;;;;;2.90;2.70;;;;;;;23.67;nan;94382.34;5033376;28;20199;-67
2022/08/14 10:59:54;;;;;;;3.00;2.90;;;;;;;23.84;nan;94385.91;5033345;28;20582;-66
2022/08/14 11:02:27;;;;;;;2.90;2.80;;;;;;;23.92;nan;94381.63;5033484;28;20204;-66
2022/08/14 11:05:02;;;;;;;2.88;2.78;;;;;;;23.74;nan;94381.63;5033079;28;20277;-67
2022/08/14 11:07:30;;;;;;;2.90;2.80;;;;;;;23.73;nan;94381.75;5032945;28;20669;-67
2022/08/14 11:09:58;;;;;;;3.53;3.22;;;;;;;23.77;nan;94369.28;5033017;28;20208;-67
2022/08/14 11:12:26;;;;;;;3.08;2.97;;;;;;;23.92;nan;94362.63;5032868;28;20243;-67
2022/08/14 11:14:58;;;;;;;2.85;2.75;;;;;;;24.54;nan;94364.25;5033660;28;20195;-68
2022/08/14 11:17:26;;;;;;;3.25;3.05;;;;;;;25.01;nan;94356.91;5033311;28;20200;-67
2022/08/14 11:19:57;;;;;;;2.90;2.80;;;;;;;25.31;nan;94352.16;5032507;28;20199;-67
2022/08/14 11:22:28;;;;;;;3.53;3.33;;;;;;;25.47;nan;94347.00;5032676;28;20210;-68
2022/08/14 11:24:56;;;;;;;3.90;3.70;;;;;;;25.56;nan;94340.00;5032781;28;20314;-67
2022/08/14 11:27:24;;;;;;;3.47;3.17;;;;;;;25.68;nan;94346.59;5031914;28;20202;-67
2022/08/14 11:29:53;;;;;;;3.42;3.33;;;;;;;25.52;nan;94344.72;5032283;28;20584;-67
2022/08/14 11:32:21;;;;;;;3.40;3.25;;;;;;;25.39;nan;94341.78;5032602;28;20262;-67
2022/08/14 11:34:48;;;;;;;4.22;3.05;;;;;;;25.31;nan;94336.53;5032379;28;20624;-68
2022/08/14 11:37:15;;;;;;;3.20;3.00;;;;;;;25.16;nan;94343.34;5033085;28;20599;-67
2022/08/14 11:39:42;;;;;;;3.30;3.08;;;;;;;24.96;nan;94353.16;5032520;28;20270;-67
2022/08/14 11:42:20;;;;;;;3.15;3.00;;;;;;;24.77;nan;94354.97;5033075;28;20195;-68
2022/08/14 11:44:48;;;;;;;2.97;2.88;;;;;;;24.64;nan;94359.78;5032458;28;20227;-69
2022/08/14 11:47:18;;;;;;;3.22;3.03;;;;;;;24.61;nan;94359.28;5032875;28;20228;-67
2022/08/14 11:49:47;;;;;;;3.47;3.28;;;;;;;24.80;nan;94353.84;5032383;28;20224;-67
2022/08/14 11:52:14;;;;;;;3.40;3.10;;;;;;;24.68;nan;94350.72;5032648;28;20196;-68
2022/08/14 11:54:41;;;;;;;3.25;2.92;;;;;;;24.61;nan;94354.06;5032016;28;20258;-68
2022/08/14 11:57:14;;;;;;;3.40;3.20;;;;;;;24.53;nan;94351.41;5032301;28;20196;-68
2022/08/14 11:59:41;;;;;;;4.95;3.45;;;;;;;24.36;nan;94343.53;5031872;28;20290;-68
2022/08/14 12:02:12;;;;;;;4.10;3.90;;;;;;;24.22;nan;94344.06;5032099;28;20207;-67
2022/08/14 12:04:50;;;;;;;4.47;4.13;;;;;;;24.29;nan;94355.50;5032332;28;20658;-66
2022/08/14 12:07:17;;;;;;;5.10;4.70;;;;;;;24.04;nan;94343.25;5031986;28;20203;-66
2022/08/14 12:09:46;;;;;;;4.40;4.20;;;;;;;23.69;nan;94344.94;5031881;28;20199;-67